Laura Schulte — A8RF9 — position and weather

sailwx.info

Track history (hours):
 
Tides and Currents Weather Stations Pressure Air Temp Water Temp Dewpoint Dewpoint Depression Visibility Wind Speed Wind Dir Waves Ship Positions

Laura Schulte

Last reported at 2017-Oct-20 02:53 UTC. Time now 2017-Oct-20 06:48 UTC.
Position N 40°52' E 001°39'.

Length 175 m; draft 9.7 m.

Type: Ship (hazmat cat A). MMSI: 636091655.

Date/timePositionNaut miles runAvg speedWind from/ knotsBaromVisibWave heightAir tempDewpointWater temp
2017-Oct-20 02:53N 40°52' E 001°39'616.6
2017-Oct-20 02:30N 40°56' E 001°44'816.7
2017-Oct-20 02:00N 41°02' E 001°52'816.7
2017-Oct-20 01:30N 41°08' E 002°00'1216.0
2017-Oct-20 00:46N 41°16' E 002°11'2 0.1
2017-Oct-19 05:17N 41°18' E 002°10'2 7.4
2017-Oct-19 04:58N 41°16' E 002°12'140 5.3
2017-Oct-18 02:39N 42°19' E 005°00'414.6
2017-Oct-18 02:24N 42°21' E 005°05'714.8
2017-Oct-18 01:57N 42°24' E 005°13'714.7
2017-Oct-18 01:30N 42°27' E 005°20'815.0
2017-Oct-18 01:00N 42°30' E 005°30'915.2
2017-Oct-18 00:26N 42°34' E 005°40'4015.3
2017-Oct-17 21:50N 42°54' E 006°27'515.6
2017-Oct-17 21:30N 42°56' E 006°33'815.5
2017-Oct-17 21:00N 43°00' E 006°43'815.3
2017-Oct-17 20:31N 43°04' E 006°51'815.3
2017-Oct-17 20:01N 43°09' E 006°59'815.3
2017-Oct-17 19:31N 43°14' E 007°08'815.2
2017-Oct-17 19:00N 43°19' E 007°16'815.1
2017-Oct-17 18:31N 43°23' E 007°24'815.3
2017-Oct-17 18:00N 43°28' E 007°32'815.3
2017-Oct-17 17:31N 43°33' E 007°41'815.6
2017-Oct-17 17:00N 43°37' E 007°49'815.2
2017-Oct-17 16:30N 43°42' E 007°57'815.4
2017-Oct-17 16:00N 43°47' E 008°06'1115.3
2017-Oct-17 15:19N 43°54' E 008°17'515.1
2017-Oct-17 15:00N 43°57' E 008°21'714.9
2017-Oct-17 14:30N 44°02' E 008°29'714.8
2017-Oct-17 14:00N 44°07' E 008°37'714.7
2017-Oct-17 13:30N 44°12' E 008°44'714.8
2017-Oct-17 13:00N 44°17' E 008°52'5 9.5
2017-Oct-17 12:31N 44°21' E 008°56'1 1.4
2017-Oct-17 12:00N 44°21' E 008°55'2 5.0
2017-Oct-17 11:31N 44°23' E 008°57'2 4.2
2017-Oct-17 11:00N 44°24' E 008°55'0 0.0
2017-Oct-17 10:25N 44°24' E 008°55'0 0.0
2017-Oct-17 09:58N 44°24' E 008°55'0 0.0
2017-Oct-17 09:25N 44°24' E 008°55'0 0.0
2017-Oct-17 08:58N 44°24' E 008°55'0 0.0
2017-Oct-17 08:28N 44°24' E 008°55'0 0.0
2017-Oct-17 07:58N 44°24' E 008°55'0 0.0
2017-Oct-17 07:28N 44°24' E 008°55'0 0.0
2017-Oct-17 06:55N 44°24' E 008°55'0 0.0
2017-Oct-17 06:25N 44°24' E 008°55'0 0.0
2017-Oct-17 05:55N 44°24' E 008°55'0 0.0
2017-Oct-17 05:25N 44°24' E 008°55'0 0.0
2017-Oct-17 04:55N 44°24' E 008°55'0 0.0
2017-Oct-17 04:28N 44°24' E 008°55'0 0.0
2017-Oct-17 03:58N 44°24' E 008°55'0 0.0
2017-Oct-17 03:13N 44°24' E 008°55'0 0.0
2017-Oct-17 02:58N 44°24' E 008°55'0 0.0
2017-Oct-17 02:28N 44°24' E 008°55'0 0.0
2017-Oct-17 01:58N 44°24' E 008°55'0 0.0
2017-Oct-17 01:28N 44°24' E 008°55'0 0.0
2017-Oct-17 00:58N 44°24' E 008°55'0 0.0
2017-Oct-17 00:28N 44°24' E 008°55'0 0.0
2017-Oct-16 23:58N 44°24' E 008°55'0 0.0
2017-Oct-16 23:28N 44°24' E 008°55'0 0.0
2017-Oct-16 22:58N 44°24' E 008°55'0 0.0
2017-Oct-16 22:28N 44°24' E 008°55'0 0.0
2017-Oct-16 21:58N 44°24' E 008°55'0 0.0
2017-Oct-16 21:28N 44°24' E 008°55'0 0.0
2017-Oct-16 20:58N 44°24' E 008°55'0 0.0
2017-Oct-16 20:25N 44°24' E 008°55'0 0.0
2017-Oct-16 19:58N 44°24' E 008°55'0 0.0
2017-Oct-16 19:28N 44°24' E 008°55'0 0.0
2017-Oct-16 18:58N 44°24' E 008°55'0 0.0
2017-Oct-16 18:28N 44°24' E 008°55'0 0.0
2017-Oct-16 17:58N 44°24' E 008°55'0 0.0
2017-Oct-16 17:28N 44°24' E 008°55'0 0.0
2017-Oct-16 16:58N 44°24' E 008°55'0 0.0
2017-Oct-16 16:28N 44°24' E 008°55'0 0.0
2017-Oct-16 15:58N 44°24' E 008°55'0 0.3
2017-Oct-16 15:30N 44°24' E 008°55'3 5.7
2017-Oct-16 15:01N 44°22' E 008°58'4 7.3
2017-Oct-16 14:30N 44°19' E 008°58'1211.6
2017-Oct-16 13:30N 44°11' E 008°46'713.3
2017-Oct-16 13:01N 44°06' E 008°39'714.2
2017-Oct-16 12:30N 44°02' E 008°31'714.0
2017-Oct-16 12:01N 43°57' E 008°24'714.1
2017-Oct-16 11:29N 43°52' E 008°16'714.1
2017-Oct-16 10:58N 43°48' E 008°09'814.1
2017-Oct-16 10:25N 43°42' E 008°01'613.9
2017-Oct-16 10:01N 43°39' E 007°55'713.6
2017-Oct-16 09:30N 43°34' E 007°48'713.9
2017-Oct-16 09:00N 43°29' E 007°41'714.3
2017-Oct-16 08:31N 43°25' E 007°33'714.7
2017-Oct-16 08:01N 43°20' E 007°26'714.6
2017-Oct-16 07:30N 43°15' E 007°18'714.4
2017-Oct-16 07:00N 43°10' E 007°11'714.5
2017-Oct-16 06:31N 43°05' E 007°04'714.4
2017-Oct-16 06:00N 43°01' E 006°56'814.4
2017-Oct-16 05:27N 42°55' E 006°48'614.3
2017-Oct-16 05:00N 42°51' E 006°41'714.2
2017-Oct-16 04:30N 42°47' E 006°34'714.2
2017-Oct-16 04:00N 42°42' E 006°27'714.5
2017-Oct-16 03:29N 42°37' E 006°19'714.5
2017-Oct-16 02:59N 42°32' E 006°12'714.7
2017-Oct-16 02:31N 42°27' E 006°05'814.8
2017-Oct-16 02:00N 42°23' E 005°57'714.8
2017-Oct-16 01:30N 42°18' E 005°49'1514.7
2017-Oct-16 00:29N 42°08' E 005°34'714.9
2017-Oct-16 00:00N 42°03' E 005°27'815.5
2017-Oct-15 23:30N 41°58' E 005°19'1815.0
2017-Oct-15 22:20N 41°46' E 005°02'1115.3
2017-Oct-15 21:36N 41°39' E 004°50'315.1
2017-Oct-15 21:25N 41°37' E 004°48'8514.9
2017-Oct-15 15:40N 40°40' E 003°23'315.2
2017-Oct-15 15:30N 40°39' E 003°20'3314.9
2017-Oct-15 13:18N 40°17' E 002°47'414.4
2017-Oct-15 13:00N 40°14' E 002°44'714.5
2017-Oct-15 12:30N 40°09' E 002°37'814.9
2017-Oct-15 11:58N 40°04' E 002°28'18815.2
2017-Oct-14 23:35N 37°48' W 000°18'215.2
2017-Oct-14 23:28N 37°47' W 000°19'715.3
2017-Oct-14 23:00N 37°41' W 000°24'815.3
2017-Oct-14 22:30N 37°35' W 000°30'1515.0
2017-Oct-14 21:32N 37°24' W 000°42'115.2
2017-Oct-14 21:30N 37°24' W 000°43'815.1
2017-Oct-14 21:00N 37°19' W 000°50'915.2
2017-Oct-14 20:26N 37°13' W 000°58'715.2
2017-Oct-14 20:00N 37°08' W 001°04'815.3
2017-Oct-14 19:29N 37°03' W 001°11'915.3
2017-Oct-14 18:54N 36°58' W 001°20'615.2
2017-Oct-14 18:30N 36°54' W 001°26'4915.6
2017-Oct-14 15:23N 36°22' W 002°12'715.7
2017-Oct-14 14:58N 36°22' W 002°20'13413.4
2017-Oct-14 04:55N 36°01' W 005°05'716.3
2017-Oct-14 04:31N 35°60' W 005°13'816.0
2017-Oct-14 04:01N 35°58' W 005°23'1116.3
2017-Oct-14 03:21N 35°55' W 005°35'1115.8
2017-Oct-14 02:41N 35°55' W 005°49'315.6
2017-Oct-14 02:29N 35°55' W 005°52'5615.6
2017-Oct-13 22:51N 36°01' W 007°02'815.8
2017-Oct-13 22:19N 36°03' W 007°12'515.7
2017-Oct-13 22:00N 36°04' W 007°18'816.2
2017-Oct-13 21:30N 36°05' W 007°28'1116.4
2017-Oct-13 20:51N 36°07' W 007°41'616.3
2017-Oct-13 20:29N 36°09' W 007°48'715.6
2017-Oct-13 20:00N 36°10' W 007°57'815.8
2017-Oct-13 19:29N 36°12' W 008°07'815.7
2017-Oct-13 19:01N 36°13' W 008°16'815.6
2017-Oct-13 18:31N 36°14' W 008°26'815.6
2017-Oct-13 18:01N 36°16' W 008°35'815.7
2017-Oct-13 17:31N 36°17' W 008°45'816.1
2017-Oct-13 17:00N 36°19' W 008°55'816.2
2017-Oct-13 16:30N 36°20' W 009°04'815.9
2017-Oct-13 16:00N 36°22' W 009°14'816.0
2017-Oct-13 15:30N 36°24' W 009°24'815.8
2017-Oct-13 15:00N 36°25' W 009°33'815.2
2017-Oct-13 14:30N 36°26' W 009°43'815.2
2017-Oct-13 14:01N 36°28' W 009°52'714.9
2017-Oct-13 13:30N 36°29' W 010°01'815.1
2017-Oct-13 13:00N 36°30' W 010°11'1215.0
2017-Oct-13 12:13N 36°32' W 010°25'315.1
2017-Oct-13 12:01N 36°32' W 010°29'815.2
2017-Oct-13 11:31N 36°33' W 010°38'1315.7
2017-Oct-13 10:42N 36°34' W 010°54'315.8
2017-Oct-13 10:30N 36°34' W 010°58'1016.2
2017-Oct-13 09:53N 36°36' W 011°10'616.1
2017-Oct-13 09:30N 36°36' W 011°18'42516.0
2017-Oct-12 07:02N 37°26' W 020°06'115.7
2017-Oct-12 06:59N 37°26' W 020°07'1115.8
2017-Oct-12 06:19N 37°26' W 020°20'515.6
2017-Oct-12 06:00N 37°26' W 020°26'815.4
2017-Oct-12 05:30N 37°26' W 020°36'815.5
2017-Oct-12 05:00N 37°26' W 020°46'815.8
2017-Oct-12 04:30N 37°26' W 020°56'815.4
2017-Oct-12 04:00N 37°27' W 021°05'815.4
2017-Oct-12 03:30N 37°27' W 021°15'1015.6
2017-Oct-12 02:51N 37°27' W 021°28'2515.8
2017-Oct-12 01:18N 37°27' W 021°59'815.7
2017-Oct-12 00:48N 37°27' W 022°09'2715.8
2017-Oct-11 23:04N 37°27' W 022°43'3516.0
2017-Oct-11 20:51N 37°28' W 023°28'616.1
2017-Oct-11 20:30N 37°28' W 023°35'816.1
2017-Oct-11 20:00N 37°28' W 023°45'815.9
2017-Oct-11 19:30N 37°28' W 023°55'816.1
2017-Oct-11 19:00N 37°28' W 024°05'816.0
2017-Oct-11 18:30N 37°28' W 024°15'815.6
2017-Oct-11 18:00N 37°28' W 024°25'816.1
2017-Oct-11 17:30N 37°28' W 024°35'816.6
2017-Oct-11 17:00N 37°28' W 024°46'  
Track history (hours):
 
Tides and Currents Weather Stations Pressure Air Temp Water Temp Dewpoint Dewpoint Depression Visibility Wind Speed Wind Dir Waves Ship Positions

Laura Schulte

Last reported at 2017-Oct-20 02:53 UTC. Time now 2017-Oct-20 06:48 UTC.
Position N 40°52' E 001°39'.

Length 175 m; draft 9.7 m.

Type: Ship (hazmat cat A). MMSI: 636091655.

Date/timePositionNaut miles runAvg speedWind from/ knotsBaromVisibWave heightAir tempDewpointWater temp
2017-Oct-20 02:53N 40°52' E 001°39'616.6
2017-Oct-20 02:30N 40°56' E 001°44'816.7
2017-Oct-20 02:00N 41°02' E 001°52'816.7
2017-Oct-20 01:30N 41°08' E 002°00'1216.0
2017-Oct-20 00:46N 41°16' E 002°11'2 0.1
2017-Oct-19 05:17N 41°18' E 002°10'2 7.4
2017-Oct-19 04:58N 41°16' E 002°12'140 5.3
2017-Oct-18 02:39N 42°19' E 005°00'414.6
2017-Oct-18 02:24N 42°21' E 005°05'714.8
2017-Oct-18 01:57N 42°24' E 005°13'714.7
2017-Oct-18 01:30N 42°27' E 005°20'815.0
2017-Oct-18 01:00N 42°30' E 005°30'915.2
2017-Oct-18 00:26N 42°34' E 005°40'4015.3
2017-Oct-17 21:50N 42°54' E 006°27'515.6
2017-Oct-17 21:30N 42°56' E 006°33'815.5
2017-Oct-17 21:00N 43°00' E 006°43'815.3
2017-Oct-17 20:31N 43°04' E 006°51'815.3
2017-Oct-17 20:01N 43°09' E 006°59'815.3
2017-Oct-17 19:31N 43°14' E 007°08'815.2
2017-Oct-17 19:00N 43°19' E 007°16'815.1
2017-Oct-17 18:31N 43°23' E 007°24'815.3
2017-Oct-17 18:00N 43°28' E 007°32'815.3
2017-Oct-17 17:31N 43°33' E 007°41'815.6
2017-Oct-17 17:00N 43°37' E 007°49'815.2
2017-Oct-17 16:30N 43°42' E 007°57'815.4
2017-Oct-17 16:00N 43°47' E 008°06'1115.3
2017-Oct-17 15:19N 43°54' E 008°17'515.1
2017-Oct-17 15:00N 43°57' E 008°21'714.9
2017-Oct-17 14:30N 44°02' E 008°29'714.8
2017-Oct-17 14:00N 44°07' E 008°37'714.7
2017-Oct-17 13:30N 44°12' E 008°44'714.8
2017-Oct-17 13:00N 44°17' E 008°52'5 9.5
2017-Oct-17 12:31N 44°21' E 008°56'1 1.4
2017-Oct-17 12:00N 44°21' E 008°55'2 5.0
2017-Oct-17 11:31N 44°23' E 008°57'2 4.2
2017-Oct-17 11:00N 44°24' E 008°55'0 0.0
2017-Oct-17 10:25N 44°24' E 008°55'0 0.0
2017-Oct-17 09:58N 44°24' E 008°55'0 0.0
2017-Oct-17 09:25N 44°24' E 008°55'0 0.0
2017-Oct-17 08:58N 44°24' E 008°55'0 0.0
2017-Oct-17 08:28N 44°24' E 008°55'0 0.0
2017-Oct-17 07:58N 44°24' E 008°55'0 0.0
2017-Oct-17 07:28N 44°24' E 008°55'0 0.0
2017-Oct-17 06:55N 44°24' E 008°55'0 0.0
2017-Oct-17 06:25N 44°24' E 008°55'0 0.0
2017-Oct-17 05:55N 44°24' E 008°55'0 0.0
2017-Oct-17 05:25N 44°24' E 008°55'0 0.0
2017-Oct-17 04:55N 44°24' E 008°55'0 0.0
2017-Oct-17 04:28N 44°24' E 008°55'0 0.0
2017-Oct-17 03:58N 44°24' E 008°55'0 0.0
2017-Oct-17 03:13N 44°24' E 008°55'0 0.0
2017-Oct-17 02:58N 44°24' E 008°55'0 0.0
2017-Oct-17 02:28N 44°24' E 008°55'0 0.0
2017-Oct-17 01:58N 44°24' E 008°55'0 0.0
2017-Oct-17 01:28N 44°24' E 008°55'0 0.0
2017-Oct-17 00:58N 44°24' E 008°55'0 0.0
2017-Oct-17 00:28N 44°24' E 008°55'0 0.0
2017-Oct-16 23:58N 44°24' E 008°55'0 0.0
2017-Oct-16 23:28N 44°24' E 008°55'0 0.0
2017-Oct-16 22:58N 44°24' E 008°55'0 0.0
2017-Oct-16 22:28N 44°24' E 008°55'0 0.0
2017-Oct-16 21:58N 44°24' E 008°55'0 0.0
2017-Oct-16 21:28N 44°24' E 008°55'0 0.0
2017-Oct-16 20:58N 44°24' E 008°55'0 0.0
2017-Oct-16 20:25N 44°24' E 008°55'0 0.0
2017-Oct-16 19:58N 44°24' E 008°55'0 0.0
2017-Oct-16 19:28N 44°24' E 008°55'0 0.0
2017-Oct-16 18:58N 44°24' E 008°55'0 0.0
2017-Oct-16 18:28N 44°24' E 008°55'0 0.0
2017-Oct-16 17:58N 44°24' E 008°55'0 0.0
2017-Oct-16 17:28N 44°24' E 008°55'0 0.0
2017-Oct-16 16:58N 44°24' E 008°55'0 0.0
2017-Oct-16 16:28N 44°24' E 008°55'0 0.0
2017-Oct-16 15:58N 44°24' E 008°55'0 0.3
2017-Oct-16 15:30N 44°24' E 008°55'3 5.7
2017-Oct-16 15:01N 44°22' E 008°58'4 7.3
2017-Oct-16 14:30N 44°19' E 008°58'1211.6
2017-Oct-16 13:30N 44°11' E 008°46'713.3
2017-Oct-16 13:01N 44°06' E 008°39'714.2
2017-Oct-16 12:30N 44°02' E 008°31'714.0
2017-Oct-16 12:01N 43°57' E 008°24'714.1
2017-Oct-16 11:29N 43°52' E 008°16'714.1
2017-Oct-16 10:58N 43°48' E 008°09'814.1
2017-Oct-16 10:25N 43°42' E 008°01'613.9
2017-Oct-16 10:01N 43°39' E 007°55'713.6
2017-Oct-16 09:30N 43°34' E 007°48'713.9
2017-Oct-16 09:00N 43°29' E 007°41'714.3
2017-Oct-16 08:31N 43°25' E 007°33'714.7
2017-Oct-16 08:01N 43°20' E 007°26'714.6
2017-Oct-16 07:30N 43°15' E 007°18'714.4
2017-Oct-16 07:00N 43°10' E 007°11'714.5
2017-Oct-16 06:31N 43°05' E 007°04'714.4
2017-Oct-16 06:00N 43°01' E 006°56'814.4
2017-Oct-16 05:27N 42°55' E 006°48'614.3
2017-Oct-16 05:00N 42°51' E 006°41'714.2
2017-Oct-16 04:30N 42°47' E 006°34'714.2
2017-Oct-16 04:00N 42°42' E 006°27'714.5
2017-Oct-16 03:29N 42°37' E 006°19'714.5
2017-Oct-16 02:59N 42°32' E 006°12'714.7
2017-Oct-16 02:31N 42°27' E 006°05'814.8
2017-Oct-16 02:00N 42°23' E 005°57'714.8
2017-Oct-16 01:30N 42°18' E 005°49'1514.7
2017-Oct-16 00:29N 42°08' E 005°34'714.9
2017-Oct-16 00:00N 42°03' E 005°27'815.5
2017-Oct-15 23:30N 41°58' E 005°19'1815.0
2017-Oct-15 22:20N 41°46' E 005°02'1115.3
2017-Oct-15 21:36N 41°39' E 004°50'315.1
2017-Oct-15 21:25N 41°37' E 004°48'8514.9
2017-Oct-15 15:40N 40°40' E 003°23'315.2
2017-Oct-15 15:30N 40°39' E 003°20'3314.9
2017-Oct-15 13:18N 40°17' E 002°47'414.4
2017-Oct-15 13:00N 40°14' E 002°44'714.5
2017-Oct-15 12:30N 40°09' E 002°37'814.9
2017-Oct-15 11:58N 40°04' E 002°28'18815.2
2017-Oct-14 23:35N 37°48' W 000°18'215.2
2017-Oct-14 23:28N 37°47' W 000°19'715.3
2017-Oct-14 23:00N 37°41' W 000°24'815.3
2017-Oct-14 22:30N 37°35' W 000°30'1515.0
2017-Oct-14 21:32N 37°24' W 000°42'115.2
2017-Oct-14 21:30N 37°24' W 000°43'815.1
2017-Oct-14 21:00N 37°19' W 000°50'915.2
2017-Oct-14 20:26N 37°13' W 000°58'715.2
2017-Oct-14 20:00N 37°08' W 001°04'815.3
2017-Oct-14 19:29N 37°03' W 001°11'915.3
2017-Oct-14 18:54N 36°58' W 001°20'615.2
2017-Oct-14 18:30N 36°54' W 001°26'4915.6
2017-Oct-14 15:23N 36°22' W 002°12'715.7
2017-Oct-14 14:58N 36°22' W 002°20'13413.4
2017-Oct-14 04:55N 36°01' W 005°05'716.3
2017-Oct-14 04:31N 35°60' W 005°13'816.0
2017-Oct-14 04:01N 35°58' W 005°23'1116.3
2017-Oct-14 03:21N 35°55' W 005°35'1115.8
2017-Oct-14 02:41N 35°55' W 005°49'315.6
2017-Oct-14 02:29N 35°55' W 005°52'5615.6
2017-Oct-13 22:51N 36°01' W 007°02'815.8
2017-Oct-13 22:19N 36°03' W 007°12'515.7
2017-Oct-13 22:00N 36°04' W 007°18'816.2
2017-Oct-13 21:30N 36°05' W 007°28'1116.4
2017-Oct-13 20:51N 36°07' W 007°41'616.3
2017-Oct-13 20:29N 36°09' W 007°48'715.6
2017-Oct-13 20:00N 36°10' W 007°57'815.8
2017-Oct-13 19:29N 36°12' W 008°07'815.7
2017-Oct-13 19:01N 36°13' W 008°16'815.6
2017-Oct-13 18:31N 36°14' W 008°26'815.6
2017-Oct-13 18:01N 36°16' W 008°35'815.7
2017-Oct-13 17:31N 36°17' W 008°45'816.1
2017-Oct-13 17:00N 36°19' W 008°55'816.2
2017-Oct-13 16:30N 36°20' W 009°04'815.9
2017-Oct-13 16:00N 36°22' W 009°14'816.0
2017-Oct-13 15:30N 36°24' W 009°24'815.8
2017-Oct-13 15:00N 36°25' W 009°33'815.2
2017-Oct-13 14:30N 36°26' W 009°43'815.2
2017-Oct-13 14:01N 36°28' W 009°52'714.9
2017-Oct-13 13:30N 36°29' W 010°01'815.1
2017-Oct-13 13:00N 36°30' W 010°11'1215.0
2017-Oct-13 12:13N 36°32' W 010°25'315.1
2017-Oct-13 12:01N 36°32' W 010°29'815.2
2017-Oct-13 11:31N 36°33' W 010°38'1315.7
2017-Oct-13 10:42N 36°34' W 010°54'315.8
2017-Oct-13 10:30N 36°34' W 010°58'1016.2
2017-Oct-13 09:53N 36°36' W 011°10'616.1
2017-Oct-13 09:30N 36°36' W 011°18'42516.0
2017-Oct-12 07:02N 37°26' W 020°06'115.7
2017-Oct-12 06:59N 37°26' W 020°07'1115.8
2017-Oct-12 06:19N 37°26' W 020°20'515.6
2017-Oct-12 06:00N 37°26' W 020°26'815.4
2017-Oct-12 05:30N 37°26' W 020°36'815.5
2017-Oct-12 05:00N 37°26' W 020°46'815.8
2017-Oct-12 04:30N 37°26' W 020°56'815.4
2017-Oct-12 04:00N 37°27' W 021°05'815.4
2017-Oct-12 03:30N 37°27' W 021°15'1015.6
2017-Oct-12 02:51N 37°27' W 021°28'2515.8
2017-Oct-12 01:18N 37°27' W 021°59'815.7
2017-Oct-12 00:48N 37°27' W 022°09'2715.8
2017-Oct-11 23:04N 37°27' W 022°43'3516.0
2017-Oct-11 20:51N 37°28' W 023°28'616.1
2017-Oct-11 20:30N 37°28' W 023°35'816.1
2017-Oct-11 20:00N 37°28' W 023°45'815.9
2017-Oct-11 19:30N 37°28' W 023°55'816.1
2017-Oct-11 19:00N 37°28' W 024°05'816.0
2017-Oct-11 18:30N 37°28' W 024°15'815.6
2017-Oct-11 18:00N 37°28' W 024°25'816.1
2017-Oct-11 17:30N 37°28' W 024°35'816.6
2017-Oct-11 17:00N 37°28' W 024°46'  

Dump ship's entire track history